EGXE

Details ICAO EGXE
Name RAF Leeming
Region United Kingdom
Timezone Europe/London (UTC+0.0)
Plans Departing 6
Arriving 5
Stats Elevation 132 ft / 40 m (AMSL)
Location 54.292565° -1.535453°
Runways 1
Magnetic Variation 1.309° W
Sunrise 2017-12-16 08:22:55 UTC / 2017-12-16 08:22:55 Local
Sunset 2017-12-16 15:43:25 UTC / 2017-12-16 15:43:25 Local
Advertisement - Login to hide

Runways

ID Width Length Bearing (true) Bearing (mag) Surface Threshold Offset Overrun Length
16 151 ft / 46 m 7,530 ft / 2,295 m 155.77° 157.08° Asphalt 0 ft / 0 m 0 ft / 0 m
34 151 ft / 46 m 7,530 ft / 2,295 m 335.78° 337.09° Asphalt 0 ft / 0 m 0 ft / 0 m

Approach Navaids

Runway Type Ident Frequency Range Bearing (true) Bearing (mag) Slope Elevation
16 Localiser LI 110.30 MHz 18 nm / 33 km 155.78° 157.09° - 132 ft / 40 m (AMSL)
16 Glidescope LI 110.30 MHz 10 nm / 19 km 155.77° 157.08° 3.00° 132 ft / 40 m (AMSL)

Map

Weather


0- 5 10 15 20 25 30 35+ Temperature / ° C

Clouds and Precipitation
Forecast for 2017-12-16 12:00 UTC. Updated 24 minutes ago

Ground ~20,000 ft ~40,000 ft Winds

METAR

EGXE 161050Z AUTO 28007KT 9999 FEW200/// 02/M01 Q1016

TAF

Not found

Frequencies

Tower 122.10 MHz Leeming Tower
Approach 122.10 MHz Leeming Ground
Approach 125.00 MHz Leeming Approach
Warning: Do not use this data for real-world aviation or navigation. No guarantee of current accuracy is given.